Time;durP1;ratioP1;P1;durP2;ratioP2;P2;SDS_P1;SDS_P2;PMS_P1;PMS_P2;Temp;Humidity;BMP_temperature;BMP_pressure;BME280_temperature;BME280_humidity;BME280_pressure;Samples;Min_cycle;Max_cycle;Signal;HPM_P1;HPM_P2
2021/08/22 00:01:05;;;;;;;10.70;9.40;;;;;;;12.92;100.00;99650.77;1644197;84;21000;-63
2021/08/22 00:03:32;;;;;;;15.13;10.90;;;;;;;12.90;100.00;99648.33;1668028;84;21364;-65
2021/08/22 00:05:58;;;;;;;17.20;13.08;;;;;;;12.84;100.00;99643.48;1683029;84;21008;-64
2021/08/22 00:08:26;;;;;;;20.00;15.28;;;;;;;12.79;100.00;99646.71;1642188;85;21340;-64
2021/08/22 00:10:55;;;;;;;17.02;12.78;;;;;;;12.73;100.00;99653.95;1637993;85;21090;-64
2021/08/22 00:13:22;;;;;;;11.40;9.80;;;;;;;12.74;100.00;99647.50;1647079;86;20969;-64
2021/08/22 00:15:49;;;;;;;11.43;8.63;;;;;;;12.73;100.00;99645.87;1647420;85;20992;-62
2021/08/22 00:18:16;;;;;;;9.55;7.87;;;;;;;12.72;100.00;99654.23;1630193;86;21096;-62
2021/08/22 00:20:42;;;;;;;17.30;8.15;;;;;;;12.66;100.00;99654.73;1637499;87;21459;-64
2021/08/22 00:23:09;;;;;;;15.50;8.85;;;;;;;12.59;100.00;99657.70;1643313;86;20958;-63
2021/08/22 00:25:36;;;;;;;10.28;7.45;;;;;;;12.54;100.00;99659.03;1657105;85;21514;-63
2021/08/22 00:28:03;;;;;;;12.30;7.10;;;;;;;12.52;100.00;99660.33;1637670;86;21075;-63
2021/08/22 00:30:31;;;;;;;;;;;;;;;12.47;100.00;99658.97;1642991;85;21819;-64
2021/08/22 00:32:57;;;;;;;9.80;6.92;;;;;;;12.42;100.00;99661.10;1635568;85;20111;-64
2021/08/22 00:35:24;;;;;;;9.18;6.92;;;;;;;12.34;100.00;99661.08;1649935;85;20940;-64
2021/08/22 00:37:50;;;;;;;8.53;6.65;;;;;;;12.29;100.00;99658.91;1639330;86;22049;-63
2021/08/22 00:40:17;;;;;;;14.13;6.70;;;;;;;12.23;100.00;99657.54;1630148;86;20894;-64
2021/08/22 00:42:46;;;;;;;11.83;6.80;;;;;;;12.17;100.00;99653.19;1645256;85;21146;-63
2021/08/22 00:45:13;;;;;;;13.90;6.83;;;;;;;12.11;100.00;99659.63;1667169;84;21060;-65
2021/08/22 00:47:40;;;;;;;11.65;6.72;;;;;;;12.07;100.00;99655.03;1641186;85;21023;-64
2021/08/22 00:50:08;;;;;;;9.70;7.17;;;;;;;12.06;100.00;99655.57;1652956;84;21385;-64
2021/08/22 00:52:34;;;;;;;10.08;7.60;;;;;;;11.97;100.00;99655.78;1635949;86;20944;-64
2021/08/22 00:55:06;;;;;;;11.48;7.30;;;;;;;11.88;100.00;99650.09;1661243;84;21833;-63
2021/08/22 00:57:34;;;;;;;10.25;6.72;;;;;;;11.84;100.00;99657.56;1648438;85;20893;-63
2021/08/22 01:00:11;;;;;;;13.13;6.78;;;;;;;11.85;100.00;99659.17;1664385;84;20897;-65
2021/08/22 01:02:51;;;;;;;10.13;7.28;;;;;;;11.88;100.00;99651.95;1678088;83;20878;-64
2021/08/22 01:06:03;;;;;;;9.38;6.72;;;;;;;11.88;100.00;99651.95;1645294;86;21226;-65
2021/08/22 01:08:34;;;;;;;15.78;7.15;;;;;;;11.90;100.00;99649.28;1659399;84;21162;-65
2021/08/22 01:11:17;;;;;;;8.10;6.83;;;;;;;12.01;100.00;99655.55;1653991;85;21534;-65
2021/08/22 01:13:55;;;;;;;11.43;7.53;;;;;;;12.01;100.00;99659.58;1659254;84;20999;-65
2021/08/22 01:16:22;;;;;;;16.93;6.92;;;;;;;11.97;100.00;99658.47;1638710;85;21098;-65
2021/08/22 01:18:49;;;;;;;11.10;6.85;;;;;;;11.89;100.00;99653.05;1661352;84;21004;-65
2021/08/22 01:21:19;;;;;;;20.45;12.40;;;;;;;11.79;100.00;99656.99;1657000;84;21705;-64
2021/08/22 01:23:54;;;;;;;31.55;19.62;;;;;;;11.77;100.00;99663.97;1637600;86;20882;-64
2021/08/22 01:26:27;;;;;;;15.30;11.55;;;;;;;11.84;100.00;99663.75;1644055;85;21077;-63
2021/08/22 01:28:54;;;;;;;12.60;8.08;;;;;;;11.95;100.00;99663.30;1637605;86;21068;-64
2021/08/22 01:31:26;;;;;;;7.30;6.45;;;;;;;12.03;100.00;99661.48;1673362;83;21119;-65
2021/08/22 01:33:57;;;;;;;14.18;6.15;;;;;;;12.06;100.00;99662.30;1649671;85;21770;-63
2021/08/22 01:36:24;;;;;;;8.38;5.90;;;;;;;12.14;100.00;99671.21;1678580;84;20966;-64
2021/08/22 01:38:51;;;;;;;13.55;6.33;;;;;;;12.21;100.00;99666.95;1647876;86;20972;-64
2021/08/22 01:41:17;;;;;;;9.43;6.62;;;;;;;12.28;100.00;99670.75;1669187;83;21425;-64
2021/08/22 01:43:45;;;;;;;10.55;6.70;;;;;;;12.29;100.00;99668.33;1681527;83;20971;-63
2021/08/22 01:46:12;;;;;;;7.22;6.15;;;;;;;12.34;100.00;99669.70;1638580;85;21669;-62
2021/08/22 01:48:39;;;;;;;13.28;5.83;;;;;;;12.37;100.00;99675.89;1682134;84;21049;-64
2021/08/22 01:51:07;;;;;;;6.40;5.75;;;;;;;12.40;100.00;99671.35;1648778;84;20897;-64
2021/08/22 01:53:34;;;;;;;9.73;5.47;;;;;;;12.46;100.00;99678.36;1665460;84;21409;-65
2021/08/22 01:56:01;;;;;;;12.90;5.50;;;;;;;12.48;100.00;99670.84;1644835;85;20921;-64
2021/08/22 01:58:28;;;;;;;6.70;5.35;;;;;;;12.50;100.00;99674.63;1669917;84;21133;-64
2021/08/22 02:00:55;;;;;;;8.03;5.58;;;;;;;12.52;100.00;99668.41;1647487;85;21044;-64
2021/08/22 02:03:46;;;;;;;15.40;6.00;;;;;;;12.53;100.00;99667.36;1665655;84;21499;-64
2021/08/22 02:06:30;;;;;;;14.65;6.62;;;;;;;12.50;100.00;99671.39;1644529;85;21022;-64
2021/08/22 02:09:01;;;;;;;6.72;5.47;;;;;;;12.48;100.00;99674.88;1664307;84;20925;-65
2021/08/22 02:11:42;;;;;;;8.83;5.92;;;;;;;12.49;100.00;99671.09;1642556;86;20918;-64
2021/08/22 02:14:10;;;;;;;6.78;5.28;;;;;;;12.55;100.00;99671.41;1655579;84;20869;-64
2021/08/22 02:16:38;;;;;;;11.73;5.70;;;;;;;12.55;100.00;99678.13;1644356;84;21022;-64
2021/08/22 02:19:06;;;;;;;8.40;5.40;;;;;;;12.56;100.00;99681.63;1619905;84;20981;-65
2021/08/22 02:21:34;;;;;;;12.70;6.05;;;;;;;12.58;100.00;99680.83;1649043;85;20909;-65
2021/08/22 02:24:01;;;;;;;7.97;5.30;;;;;;;12.58;100.00;99680.83;1662839;84;21155;-65
2021/08/22 02:26:27;;;;;;;7.78;5.47;;;;;;;12.53;100.00;99682.16;1645895;86;21166;-65
2021/08/22 02:28:56;;;;;;;10.88;5.47;;;;;;;12.48;100.00;99685.64;1639365;84;21570;-64
2021/08/22 02:31:26;;;;;;;8.18;5.20;;;;;;;12.42;100.00;99681.30;1642785;86;21005;-64
2021/08/22 02:33:52;;;;;;;6.92;5.17;;;;;;;12.35;100.00;99679.41;1678049;84;20927;-65
2021/08/22 02:36:18;;;;;;;11.65;5.80;;;;;;;12.31;100.00;99677.76;1645435;84;21137;-65
2021/08/22 02:38:45;;;;;;;7.45;6.00;;;;;;;12.27;100.00;99676.65;1681852;84;21191;-64
2021/08/22 02:41:12;;;;;;;9.43;6.28;;;;;;;12.21;100.00;99677.17;1640359;84;20942;-64
2021/08/22 02:43:39;;;;;;;7.03;6.05;;;;;;;12.16;100.00;99685.76;1664029;84;21503;-63
2021/08/22 02:46:06;;;;;;;7.58;5.10;;;;;;;12.13;100.00;99683.05;1644453;85;20939;-64
2021/08/22 02:48:34;;;;;;;7.67;6.03;;;;;;;12.09;100.00;99679.26;1666156;84;21880;-65
2021/08/22 02:51:01;;;;;;;8.75;6.00;;;;;;;12.04;100.00;99675.19;1643793;85;20892;-64
2021/08/22 02:53:28;;;;;;;8.08;4.95;;;;;;;11.99;100.00;99679.20;1673823;84;21514;-65
2021/08/22 02:55:55;;;;;;;5.70;5.12;;;;;;;12.01;100.00;99677.88;1641350;86;21001;-64
2021/08/22 02:58:21;;;;;;;9.10;5.47;;;;;;;12.01;100.00;99679.76;1664768;84;21403;-64
2021/08/22 03:00:48;;;;;;;17.87;6.60;;;;;;;11.94;100.00;99683.20;1647479;85;21133;-65
2021/08/22 03:03:14;;;;;;;9.48;6.40;;;;;;;11.85;100.00;99681.49;1659982;83;20866;-65
2021/08/22 03:05:41;;;;;;;13.05;6.00;;;;;;;11.77;100.00;99688.17;1654669;85;21471;-65
2021/08/22 03:08:08;;;;;;;8.45;5.45;;;;;;;11.72;100.00;99681.41;1659096;84;20948;-65
2021/08/22 03:10:34;;;;;;;16.48;6.40;;;;;;;11.70;100.00;99686.77;1646928;85;21134;-65
2021/08/22 03:13:01;;;;;;;11.73;6.80;;;;;;;11.66;100.00;99692.38;1681648;84;21852;-63
2021/08/22 03:15:28;;;;;;;9.63;6.15;;;;;;;11.66;100.00;99692.38;1649371;86;21034;-65
2021/08/22 03:17:55;;;;;;;22.22;6.50;;;;;;;11.63;100.00;99693.70;1671488;84;20942;-65
2021/08/22 03:20:21;;;;;;;9.50;6.17;;;;;;;11.61;100.00;99693.69;1644981;84;21353;-64
2021/08/22 03:22:48;;;;;;;10.75;6.30;;;;;;;11.53;100.00;99685.56;1664525;84;20904;-65
2021/08/22 03:25:14;;;;;;;9.20;5.87;;;;;;;11.48;100.00;99686.33;1651818;85;21404;-64
2021/08/22 03:27:41;;;;;;;10.70;6.08;;;;;;;11.43;100.00;99688.17;1667160;83;21174;-65
2021/08/22 03:30:09;;;;;;;8.68;6.53;;;;;;;11.37;100.00;99696.19;1647056;86;20993;-65
2021/08/22 03:32:35;;;;;;;12.03;6.30;;;;;;;11.37;100.00;99692.16;1653597;84;20940;-65
2021/08/22 03:35:02;;;;;;;9.10;6.70;;;;;;;11.37;100.00;99691.36;1642868;85;21476;-63
2021/08/22 03:37:29;;;;;;;18.23;7.12;;;;;;;11.34;100.00;99690.50;1658061;84;21154;-62
2021/08/22 03:39:55;;;;;;;9.45;6.78;;;;;;;11.27;100.00;99697.45;1649293;85;20857;-63
2021/08/22 03:42:22;;;;;;;8.75;6.22;;;;;;;11.27;100.00;99693.92;1666038;84;20924;-64
2021/08/22 03:44:50;;;;;;;11.97;6.95;;;;;;;11.31;100.00;99699.88;1648123;85;20897;-63
2021/08/22 03:47:18;;;;;;;12.33;7.03;;;;;;;11.34;100.00;99699.40;1674306;84;20938;-64
2021/08/22 03:49:44;;;;;;;9.55;7.22;;;;;;;11.41;100.00;99702.39;1639944;84;21098;-65
2021/08/22 03:52:11;;;;;;;8.63;7.58;;;;;;;11.49;100.00;99698.72;1667847;84;20912;-65
2021/08/22 03:54:39;;;;;;;11.43;7.45;;;;;;;11.56;100.00;99697.97;1637091;85;20908;-64
2021/08/22 03:57:06;;;;;;;8.48;6.50;;;;;;;11.60;100.00;99698.26;1680036;84;21152;-68
2021/08/22 03:59:33;;;;;;;21.12;7.95;;;;;;;11.69;100.00;99706.67;1646599;84;21126;-68
2021/08/22 04:02:00;;;;;;;18.60;6.95;;;;;;;11.73;100.00;99703.72;1672933;84;21713;-67
2021/08/22 04:04:28;;;;;;;18.05;7.10;;;;;;;11.75;100.00;99707.78;1653042;85;20969;-66
2021/08/22 04:06:57;;;;;;;10.93;7.80;;;;;;;11.75;100.00;99709.13;1660683;84;27274;-67
2021/08/22 04:09:25;;;;;;;12.43;7.17;;;;;;;11.79;100.00;99708.09;1643850;84;21352;-67
2021/08/22 04:11:53;;;;;;;17.50;6.28;;;;;;;11.89;100.00;99704.16;1666099;84;21009;-66
2021/08/22 04:14:20;;;;;;;9.38;6.95;;;;;;;12.10;100.00;99713.69;1647714;85;21088;-67
2021/08/22 04:16:48;;;;;;;11.83;6.72;;;;;;;12.29;100.00;99715.42;1678428;84;20957;-66
2021/08/22 04:19:15;;;;;;;9.38;7.00;;;;;;;12.47;100.00;99716.85;1652567;85;20925;-67
2021/08/22 04:24:36;;;;;;;10.58;6.05;;;;;;;12.79;100.00;99715.39;1641761;85;21146;-67
2021/08/22 04:27:06;;;;;;;13.57;6.20;;;;;;;12.97;100.00;99716.24;1665752;84;21113;-68
2021/08/22 04:29:36;;;;;;;18.80;7.08;;;;;;;13.17;100.00;99719.52;1679190;84;21123;-68
2021/08/22 04:32:11;;;;;;;8.53;5.58;;;;;;;13.43;100.00;99718.25;1646635;86;21134;-67
2021/08/22 04:34:39;;;;;;;11.55;5.45;;;;;;;13.62;100.00;99723.91;1675942;83;21403;-67
2021/08/22 04:37:06;;;;;;;17.05;5.22;;;;;;;13.77;100.00;99722.58;1651147;84;21045;-69
2021/08/22 04:40:05;;;;;;;9.45;5.30;;;;;;;13.94;100.00;99723.64;1633888;86;21564;-68
2021/08/22 04:45:46;;;;;;;7.67;5.05;;;;;;;14.14;100.00;99733.59;1617846;87;21041;-68
2021/08/22 04:48:17;;;;;;;8.93;5.65;;;;;;;14.28;100.00;99737.35;1576048;85;21269;-67
2021/08/22 04:50:46;;;;;;;7.55;4.70;;;;;;;14.55;100.00;99730.28;1620417;86;21533;-68
2021/08/22 04:53:15;;;;;;;9.10;4.22;;;;;;;14.78;100.00;99736.94;1614589;86;21138;-67
2021/08/22 04:55:42;;;;;;;9.05;4.50;;;;;;;14.93;100.00;99741.45;1611830;87;20985;-67
2021/08/22 04:58:09;;;;;;;9.53;5.22;;;;;;;15.07;100.00;99746.27;1595404;87;21256;-66
2021/08/22 05:00:36;;;;;;;8.45;4.78;;;;;;;15.19;100.00;99744.84;1587675;87;21162;-66
2021/08/22 05:03:03;;;;;;;10.70;4.40;;;;;;;15.21;100.00;99746.73;1617397;87;21604;-67
2021/08/22 05:05:31;;;;;;;9.65;4.40;;;;;;;15.37;100.00;99745.27;1624740;85;21106;-67
2021/08/22 05:07:58;;;;;;;5.25;4.30;;;;;;;15.54;100.00;99747.04;1642460;83;21540;-66
2021/08/22 05:10:27;;;;;;;7.83;4.42;;;;;;;15.76;100.00;99739.06;1669615;83;20879;-66
2021/08/22 05:12:54;;;;;;;5.85;4.25;;;;;;;15.94;100.00;99742.41;1640694;85;20905;-66
2021/08/22 05:15:22;;;;;;;6.47;4.80;;;;;;;16.06;100.00;99742.84;1644428;85;20971;-68
2021/08/22 05:17:48;;;;;;;9.50;4.33;;;;;;;16.26;100.00;99743.17;1623546;86;21711;-67
2021/08/22 05:20:17;;;;;;;9.20;4.08;;;;;;;16.48;100.00;99746.73;1633200;85;21443;-67
2021/08/22 05:22:44;;;;;;;9.70;4.17;;;;;;;16.76;100.00;99757.02;1626671;86;21214;-67
2021/08/22 05:25:11;;;;;;;8.35;3.75;;;;;;;17.12;100.00;99756.02;1617162;86;21084;-67
2021/08/22 05:27:37;;;;;;;9.63;4.10;;;;;;;17.28;100.00;99760.70;1643597;85;21580;-66
2021/08/22 05:30:06;;;;;;;9.58;4.33;;;;;;;17.48;100.00;99761.74;1650021;84;21208;-67
2021/08/22 05:32:32;;;;;;;7.15;4.00;;;;;;;17.71;100.00;99763.29;1628047;85;21130;-67
2021/08/22 05:35:01;;;;;;;7.53;3.55;;;;;;;17.91;100.00;99758.94;1663767;84;21055;-67
2021/08/22 05:37:27;;;;;;;6.78;3.72;;;;;;;18.35;100.00;99766.33;1640746;86;20877;-65
2021/08/22 05:39:54;;;;;;;14.50;4.30;;;;;;;18.47;100.00;99759.02;1650143;86;20964;-67
2021/08/22 05:42:21;;;;;;;10.58;3.60;;;;;;;18.63;100.00;99764.41;1650172;86;21134;-66
2021/08/22 05:44:48;;;;;;;10.43;4.08;;;;;;;18.81;100.00;99763.55;1632471;85;20956;-65
2021/08/22 05:47:22;;;;;;;10.45;3.30;;;;;;;18.84;100.00;99767.02;1653112;85;20905;-66
2021/08/22 05:49:48;;;;;;;11.83;3.70;;;;;;;19.06;100.00;99766.28;1655138;86;21391;-67
2021/08/22 05:52:17;;;;;;;7.15;3.17;;;;;;;19.36;100.00;99772.16;1648705;85;21066;-64
2021/08/22 05:54:44;;;;;;;9.63;2.77;;;;;;;19.45;100.00;99770.86;1625193;86;21144;-66
2021/08/22 05:57:10;;;;;;;12.05;3.35;;;;;;;19.62;100.00;99773.74;1609311;86;21017;-66
2021/08/22 05:59:37;;;;;;;15.95;2.70;;;;;;;20.01;100.00;99775.55;1636106;84;21092;-67
2021/08/22 06:02:06;;;;;;;5.70;3.33;;;;;;;20.24;100.00;99778.50;1658499;84;20987;-67
2021/08/22 06:04:59;;;;;;;11.40;3.30;;;;;;;20.24;100.00;99781.22;1571830;88;21398;-67
2021/08/22 06:07:26;;;;;;;7.83;3.57;;;;;;;20.12;100.00;99783.16;1620824;87;21726;-67
2021/08/22 06:09:53;;;;;;;4.67;2.67;;;;;;;20.02;100.00;99780.70;1595039;87;21171;-67
2021/08/22 06:12:20;;;;;;;8.23;2.87;;;;;;;20.21;100.00;99783.22;1605227;87;21012;-67
2021/08/22 06:14:47;;;;;;;6.15;2.90;;;;;;;20.48;100.00;99782.76;1627169;87;21127;-67
2021/08/22 06:17:13;;;;;;;9.98;3.30;;;;;;;20.44;100.00;99784.52;1602099;87;21603;-66
2021/08/22 06:19:40;;;;;;;8.75;3.30;;;;;;;20.47;100.00;99786.05;1567755;90;21170;-67
2021/08/22 06:22:06;;;;;;;4.90;2.72;;;;;;;20.64;100.00;99786.72;1541274;89;21003;-67
2021/08/22 06:24:33;;;;;;;4.65;3.00;;;;;;;20.75;100.00;99789.98;1556751;89;21012;-66
2021/08/22 06:27:00;;;;;;;3.33;2.62;;;;;;;21.12;95.97;99788.63;1561117;89;21152;-66
2021/08/22 06:30:00;;;;;;;5.60;2.98;;;;;;;21.35;92.23;99796.69;1561428;88;21107;-65
2021/08/22 06:32:27;;;;;;;5.00;2.83;;;;;;;21.42;91.63;99793.52;1502781;93;21190;-66
2021/08/22 06:37:46;;;;;;;4.00;2.30;;;;;;;21.35;91.86;99796.69;1553833;88;21283;-65
2021/08/22 06:40:44;;;;;;;5.47;2.90;;;;;;;21.87;89.13;99798.64;1582463;84;21075;-65
2021/08/22 06:43:11;;;;;;;14.43;2.62;;;;;;;22.02;85.57;99796.76;1612874;86;21016;-67
2021/08/22 06:45:40;;;;;;;10.20;2.90;;;;;;;21.79;83.17;99792.06;1597210;87;21088;-67
2021/08/22 06:48:07;;;;;;;4.83;2.45;;;;;;;21.89;84.28;99793.66;1613183;88;21033;-66
2021/08/22 06:50:34;;;;;;;4.10;2.25;;;;;;;22.34;81.40;99799.55;1584244;86;21087;-66
2021/08/22 06:53:01;;;;;;;6.05;2.72;;;;;;;22.33;77.92;99803.97;1608576;86;21106;-67
2021/08/22 06:55:27;;;;;;;5.62;2.30;;;;;;;22.40;77.83;99806.44;1564558;89;20963;-66
2021/08/22 06:57:54;;;;;;;7.28;2.35;;;;;;;22.63;77.33;99796.61;1561514;89;21736;-67
2021/08/22 07:00:21;;;;;;;10.50;2.00;;;;;;;22.45;75.80;99797.25;1572179;88;21813;-66
2021/08/22 07:02:48;;;;;;;7.45;2.20;;;;;;;22.58;75.48;99795.43;1572843;89;21613;-68
2021/08/22 07:05:24;;;;;;;6.40;2.02;;;;;;;22.69;73.45;99799.42;1545806;89;21066;-67
2021/08/22 07:07:53;;;;;;;4.50;2.00;;;;;;;22.49;68.79;99805.05;1584873;88;21216;-67
2021/08/22 07:10:20;;;;;;;3.20;2.00;;;;;;;22.72;70.54;99798.75;1641506;85;24821;-65
2021/08/22 07:12:46;;;;;;;6.55;2.25;;;;;;;22.44;72.17;99800.56;1653099;85;21051;-67
2021/08/22 07:15:13;;;;;;;7.05;2.20;;;;;;;22.59;72.88;99797.05;1644056;85;21050;-66
2021/08/22 07:17:40;;;;;;;3.23;2.27;;;;;;;22.25;73.77;99796.83;1696934;82;21121;-67
2021/08/22 07:20:13;;;;;;;4.75;2.33;;;;;;;22.51;71.53;99797.87;1671769;83;21030;-67
2021/08/22 07:22:54;;;;;;;8.35;2.22;;;;;;;22.62;69.69;99799.92;1687370;83;21110;-66
2021/08/22 07:25:34;;;;;;;4.75;1.90;;;;;;;22.62;70.53;99801.86;1683038;84;21091;-66
2021/08/22 07:28:00;;;;;;;5.12;1.80;;;;;;;23.07;70.27;99808.17;1690597;84;21044;-67
2021/08/22 07:30:36;;;;;;;5.83;2.27;;;;;;;23.13;66.12;99809.60;1646279;83;21096;-67
2021/08/22 07:37:12;;;;;;;3.87;1.42;;;;;;;23.22;62.49;99805.42;1699808;83;21003;-68
2021/08/22 07:39:48;;;;;;;;;;;;;;;23.44;60.30;99805.67;1650689;84;20993;-68
2021/08/22 07:42:22;;;;;;;7.00;1.40;;;;;;;23.56;60.34;99804.94;1628279;86;20191;-67
2021/08/22 07:45:33;;;;;;;2.80;1.32;;;;;;;23.31;59.87;99805.59;1562047;87;21088;-68
2021/08/22 07:56:30;;;;;;;5.42;1.80;;;;;;;23.10;59.11;99802.85;1543348;90;21025;-67
2021/08/22 07:59:09;;;;;;;4.45;1.42;;;;;;;23.47;58.79;99803.63;1589272;89;21590;-67
2021/08/22 08:01:38;;;;;;;9.60;1.67;;;;;;;23.60;59.24;99802.58;1593814;88;21095;-68
2021/08/22 08:04:04;;;;;;;3.10;1.80;;;;;;;23.26;58.96;99800.32;1600364;88;21321;-67
2021/08/22 08:06:31;;;;;;;6.05;1.87;;;;;;;23.35;56.92;99798.91;1598122;88;20938;-67
2021/08/22 08:08:58;;;;;;;6.50;1.47;;;;;;;23.64;56.42;99803.52;1588446;88;21141;-67
2021/08/22 08:11:26;;;;;;;2.62;1.65;;;;;;;24.16;55.69;99803.63;1597270;88;21059;-67
2021/08/22 08:14:02;;;;;;;2.08;1.30;;;;;;;24.34;54.40;99805.59;1618523;87;21025;-68
2021/08/22 08:16:31;;;;;;;2.62;1.70;;;;;;;23.56;56.05;99799.47;1617699;87;21340;-67
2021/08/22 08:18:58;;;;;;;3.05;1.37;;;;;;;22.74;60.53;99802.54;1619457;87;20986;-67
2021/08/22 08:21:25;;;;;;;3.17;1.50;;;;;;;22.99;60.76;99802.19;1564516;89;21574;-67
2021/08/22 08:23:53;;;;;;;2.87;1.40;;;;;;;23.42;57.30;99807.94;1588041;88;21382;-68
2021/08/22 08:26:22;;;;;;;4.30;1.37;;;;;;;23.93;56.87;99804.56;1608259;87;21094;-68
2021/08/22 08:28:48;;;;;;;6.35;1.75;;;;;;;24.46;55.87;99802.11;1596438;87;21149;-67
2021/08/22 08:31:17;;;;;;;3.75;1.70;;;;;;;25.07;52.84;99813.11;1587066;88;21297;-68
2021/08/22 08:33:45;;;;;;;4.95;1.40;;;;;;;25.16;50.76;99806.92;1576339;88;20953;-68
2021/08/22 08:36:16;;;;;;;5.75;1.50;;;;;;;25.51;50.57;99813.28;1639968;83;21133;-67
2021/08/22 08:38:43;;;;;;;5.83;1.55;;;;;;;24.41;51.75;99807.22;1696285;83;21050;-68
2021/08/22 08:41:10;;;;;;;2.30;1.70;;;;;;;24.72;52.29;99810.01;1661430;84;21164;-68
2021/08/22 08:43:38;;;;;;;2.80;1.83;;;;;;;25.31;51.38;99811.52;1666627;84;21037;-69
2021/08/22 08:46:33;;;;;;;2.80;1.60;;;;;;;24.86;50.43;99809.09;1666915;84;21462;-69
2021/08/22 08:49:27;;;;;;;6.95;1.67;;;;;;;24.54;53.09;99800.62;1647411;85;21009;-68
2021/08/22 08:52:00;;;;;;;3.42;1.40;;;;;;;24.07;52.32;99803.70;1647006;86;20906;-68
2021/08/22 08:54:38;;;;;;;2.60;1.62;;;;;;;23.52;53.27;99797.41;1635870;85;22736;-68
2021/08/22 08:57:06;;;;;;;3.17;1.77;;;;;;;22.77;55.59;99795.83;1649020;86;20961;-68
2021/08/22 08:59:36;;;;;;;2.75;1.77;;;;;;;22.50;58.25;99791.60;1644239;86;20897;-68
2021/08/22 09:02:03;;;;;;;5.17;2.10;;;;;;;22.94;57.00;99793.57;1627421;86;21039;-68
2021/08/22 09:04:47;;;;;;;6.00;1.92;;;;;;;23.75;54.78;99780.06;1648353;85;21170;-69
2021/08/22 09:08:00;;;;;;;3.92;1.98;;;;;;;24.22;52.28;99797.34;1650516;85;21150;-68
2021/08/22 09:11:17;;;;;;;3.58;2.40;;;;;;;24.28;51.48;99790.52;1652371;85;20985;-68
2021/08/22 09:14:13;;;;;;;5.20;1.82;;;;;;;23.69;52.56;99794.27;1688006;84;20969;-68
2021/08/22 09:17:07;;;;;;;3.93;1.90;;;;;;;23.79;52.56;99794.45;1682523;83;21395;-68
2021/08/22 09:20:11;;;;;;;5.92;1.70;;;;;;;24.31;51.36;99793.94;1673068;84;21127;-68
2021/08/22 09:23:34;;;;;;;2.72;1.35;;;;;;;24.34;50.61;99795.42;1648265;86;21315;-68
2021/08/22 09:26:36;;;;;;;2.33;1.32;;;;;;;24.41;48.22;99796.24;1618225;86;21036;-68
2021/08/22 09:29:36;;;;;;;2.22;1.32;;;;;;;24.85;48.72;99793.78;1682135;84;21425;-68
2021/08/22 09:32:38;;;;;;;2.47;1.47;;;;;;;24.91;49.73;99791.02;1641804;86;20913;-68
2021/08/22 09:35:53;;;;;;;2.98;1.45;;;;;;;24.35;47.85;99789.36;1636297;86;20889;-67
2021/08/22 09:38:25;;;;;;;5.45;1.75;;;;;;;24.85;48.09;99792.99;1647456;86;21131;-67
2021/08/22 09:41:11;;;;;;;4.37;1.35;;;;;;;25.06;47.06;99796.96;1633129;86;20988;-67
2021/08/22 09:44:35;;;;;;;9.80;3.40;;;;;;;24.94;47.55;99786.23;1622911;86;21067;-67
2021/08/22 09:47:51;;;;;;;3.12;2.10;;;;;;;24.87;47.15;99792.88;1639478;86;20960;-69
2021/08/22 09:50:46;;;;;;;3.05;1.60;;;;;;;24.59;46.45;99797.65;1648752;86;20925;-68
2021/08/22 09:54:11;;;;;;;1.60;1.25;;;;;;;24.97;44.20;99802.59;1638149;87;21139;-68
2021/08/22 09:57:25;;;;;;;4.87;1.47;;;;;;;25.08;44.65;99794.67;1636362;86;20913;-68
2021/08/22 10:00:44;;;;;;;1.52;1.10;;;;;;;24.98;46.39;99785.75;1613484;87;20968;-68
2021/08/22 10:03:38;;;;;;;19.07;2.05;;;;;;;24.91;43.19;99778.67;1639580;86;21380;-68
2021/08/22 10:06:32;;;;;;;2.90;0.87;;;;;;;25.41;45.29;99785.72;1635787;87;20937;-68
2021/08/22 10:09:26;;;;;;;18.15;2.05;;;;;;;25.18;44.89;99777.17;1619429;84;21151;-68
2021/08/22 10:11:56;;;;;;;4.45;1.17;;;;;;;25.37;46.76;99788.13;1607670;86;21043;-68
2021/08/22 10:14:27;;;;;;;2.37;1.30;;;;;;;25.30;44.00;99785.17;1642982;86;21119;-69
2021/08/22 10:16:55;;;;;;;2.17;1.15;;;;;;;25.65;45.61;99787.59;1643312;86;21005;-68
2021/08/22 10:19:25;;;;;;;3.17;1.17;;;;;;;25.77;44.01;99788.13;1619266;86;20958;-68
2021/08/22 10:22:17;;;;;;;2.90;1.42;;;;;;;25.87;43.40;99789.02;1604428;88;21299;-68
2021/08/22 10:24:47;;;;;;;2.02;1.22;;;;;;;25.78;44.41;99789.71;1618273;87;21025;-67
2021/08/22 10:27:35;;;;;;;2.92;1.20;;;;;;;24.94;47.83;99779.37;1609611;88;20934;-67
2021/08/22 10:30:07;;;;;;;2.62;1.25;;;;;;;25.24;45.97;99777.75;1545795;90;21625;-68
2021/08/22 10:32:36;;;;;;;2.35;1.27;;;;;;;24.75;46.94;99772.29;1568709;90;21586;-68
2021/08/22 10:35:18;;;;;;;2.33;1.30;;;;;;;24.98;44.53;99781.64;1563102;90;21137;-69
2021/08/22 10:37:45;;;;;;;5.15;1.70;;;;;;;24.42;43.80;99777.83;1551357;91;21026;-68
2021/08/22 10:40:30;;;;;;;2.77;1.45;;;;;;;25.27;44.32;99783.92;1536906;92;21031;-69
2021/08/22 10:43:09;;;;;;;4.10;1.20;;;;;;;25.52;43.50;99772.28;1544851;91;21045;-68
2021/08/22 10:45:47;;;;;;;2.83;1.37;;;;;;;25.45;43.05;99776.19;1556420;91;20884;-69
2021/08/22 10:48:27;;;;;;;2.22;1.10;;;;;;;25.58;42.49;99776.97;1562695;90;20980;-69
2021/08/22 10:51:07;;;;;;;2.17;1.22;;;;;;;25.18;44.46;99770.30;1558392;91;21188;-69
2021/08/22 10:53:35;;;;;;;2.85;1.07;;;;;;;25.56;43.05;99775.94;1561173;91;21285;-68
2021/08/22 10:56:26;;;;;;;2.72;1.15;;;;;;;25.38;42.38;99771.31;1558808;90;21054;-69
2021/08/22 10:59:02;;;;;;;2.15;1.32;;;;;;;26.00;42.76;99770.50;1599775;88;21134;-69
2021/08/22 11:01:32;;;;;;;1.82;1.10;;;;;;;25.90;43.79;99771.60;1565245;90;20995;-68
2021/08/22 11:04:05;;;;;;;3.22;1.50;;;;;;;25.79;44.95;99767.14;1563059;89;21123;-68
2021/08/22 11:06:34;;;;;;;3.37;1.37;;;;;;;26.42;43.21;99773.34;1562054;87;21473;-69
2021/08/22 11:09:04;;;;;;;6.40;1.57;;;;;;;25.72;44.30;99769.11;1651036;85;20994;-68
2021/08/22 11:11:30;;;;;;;2.30;1.87;;;;;;;24.83;46.55;99771.94;1660157;85;20928;-68
2021/08/22 11:13:59;;;;;;;3.45;1.60;;;;;;;25.13;45.21;99762.86;1660992;85;21146;-68
2021/08/22 11:16:45;;;;;;;4.08;1.95;;;;;;;24.62;46.12;99757.77;1659177;84;20879;-68
2021/08/22 11:19:11;;;;;;;4.12;2.08;;;;;;;24.50;46.91;99755.83;1649037;85;20925;-69
2021/08/22 11:21:38;;;;;;;6.10;2.90;;;;;;;24.77;46.83;99757.66;1650731;85;21003;-69
2021/08/22 11:24:06;;;;;;;5.70;2.72;;;;;;;25.37;43.61;99760.08;1627546;87;21595;-69
2021/08/22 11:26:33;;;;;;;4.72;3.45;;;;;;;25.60;43.73;99760.91;1659509;83;21101;-69
2021/08/22 11:29:01;;;;;;;5.15;3.15;;;;;;;25.99;41.37;99756.55;1675586;84;21058;-68
2021/08/22 11:31:31;;;;;;;5.78;3.85;;;;;;;25.74;39.78;99765.44;1680967;85;21029;-69
2021/08/22 11:33:58;;;;;;;4.65;1.98;;;;;;;25.84;41.01;99770.42;1681871;84;20935;-69
2021/08/22 11:36:28;;;;;;;3.05;1.75;;;;;;;25.90;39.26;99764.73;1675700;84;21037;-69
2021/08/22 11:39:13;;;;;;;4.65;1.50;;;;;;;26.03;38.20;99770.38;1681710;85;21144;-69
2021/08/22 11:41:43;;;;;;;2.60;1.70;;;;;;;26.07;37.37;99769.31;1657675;84;21022;-69
2021/08/22 11:45:53;;;;;;;4.95;1.90;;;;;;;25.78;38.51;99762.22;1644415;84;21000;-69
2021/08/22 11:48:26;;;;;;;2.35;1.90;;;;;;;25.99;38.45;99759.84;1653469;85;21018;-68
2021/08/22 11:51:01;;;;;;;2.87;1.42;;;;;;;26.04;37.33;99749.95;1670101;84;21039;-67
2021/08/22 11:53:29;;;;;;;2.85;1.90;;;;;;;26.55;36.80;99758.35;1653968;85;21146;-67
2021/08/22 11:55:56;;;;;;;;;;;;;;;26.97;38.17;99755.58;1675517;83;21105;-68
2021/08/22 11:58:23;;;;;;;4.72;1.62;;;;;;;26.88;39.30;99748.91;1664512;84;20178;-68
2021/08/22 12:00:52;;;;;;;2.37;1.55;;;;;;;26.59;37.93;99752.95;1664140;84;20932;-68
2021/08/22 12:03:24;;;;;;;2.67;1.50;;;;;;;26.36;39.05;99753.55;1657899;84;21071;-68
2021/08/22 12:06:07;;;;;;;2.60;1.92;;;;;;;26.38;39.10;99751.22;1673195;84;21126;-66
2021/08/22 12:08:35;;;;;;;2.85;1.60;;;;;;;26.58;39.57;99746.65;1649218;86;21217;-67
2021/08/22 12:11:22;;;;;;;7.15;2.05;;;;;;;26.54;39.34;99745.76;1676507;84;21066;-66
2021/08/22 12:13:45;;;;;;;2.98;1.95;;;;;;;26.51;40.78;99740.36;1664858;85;21104;-67
2021/08/22 12:16:30;;;;;;;;;;;;;;;26.39;40.38;99739.66;1626505;85;21091;-68